createdAt,value
2022-09-12T00:01:27.586Z,101386.81
2022-09-12T00:03:58.240Z,101374.25
2022-09-12T00:06:30.158Z,101390.19
2022-09-12T00:09:01.854Z,101376.47
2022-09-12T00:11:31.638Z,101379.56
2022-09-12T00:14:02.550Z,101371.72
2022-09-12T00:16:35.380Z,101364.72
2022-09-12T00:19:05.553Z,101384.06
2022-09-12T00:21:35.911Z,101366.41
2022-09-12T00:24:04.772Z,101368.66
2022-09-12T00:26:34.874Z,101374.53
2022-09-12T00:29:03.276Z,101366.13
2022-09-12T00:31:31.650Z,101366.13
2022-09-12T00:34:01.665Z,101361.94
2022-09-12T00:36:31.300Z,101362.47
2022-09-12T00:39:00.375Z,101358.28
2022-09-12T00:41:31.362Z,101354.66
2022-09-12T00:44:03.028Z,101355.75
2022-09-12T00:46:39.079Z,101356.59
2022-09-12T00:49:14.513Z,101350.16
2022-09-12T00:51:46.871Z,101347.06
2022-09-12T00:54:22.182Z,101345.13
2022-09-12T00:56:54.368Z,101350.72
2022-09-12T00:59:30.449Z,101335.88
2022-09-12T01:01:59.007Z,101340.66
2022-09-12T01:04:29.594Z,101337.84
2022-09-12T01:06:59.541Z,101340.06
2022-09-12T01:09:27.983Z,101333.09
2022-09-12T01:11:56.949Z,101334.19
2022-09-12T01:14:26.845Z,101333.66
2022-09-12T01:16:55.182Z,101335.59
2022-09-12T01:20:07.947Z,101340.34
2022-09-12T01:23:04.912Z,101329.72
2022-09-12T01:25:39.667Z,101328.63
2022-09-12T01:28:30.406Z,101334.78
2022-09-12T01:31:07.893Z,101320.78
2022-09-12T01:33:54.943Z,101323.56
2022-09-12T01:36:42.529Z,101324.94
2022-09-12T01:39:21.986Z,101326.91
2022-09-12T01:41:57.300Z,101316.84
2022-09-12T01:44:37.856Z,101328.59
2022-09-12T01:47:13.132Z,101324.91
2022-09-12T01:49:52.094Z,101320.19
2022-09-12T01:52:29.059Z,101330.25
2022-09-12T01:55:08.982Z,101316.25
2022-09-12T01:57:44.362Z,101313.44
2022-09-12T02:00:14.388Z,101308.66
2022-09-12T02:02:50.686Z,101305.03
2022-09-12T02:05:23.372Z,101300.28
2022-09-12T02:07:56.993Z,101294.13
2022-09-12T02:10:32.666Z,101287.41
2022-09-12T02:13:08.295Z,101287.41
2022-09-12T02:15:39.419Z,101288.81
2022-09-12T02:18:14.130Z,101287.13
2022-09-12T02:20:48.253Z,101284.91
2022-09-12T02:23:24.395Z,101288.25
2022-09-12T02:25:57.611Z,101280.16
2022-09-12T02:28:30.589Z,101279.31
2022-09-12T02:31:09.718Z,101279.56
2022-09-12T02:33:49.261Z,101283.19
2022-09-12T02:36:29.688Z,101285.16
2022-09-12T02:38:58.259Z,101285.19
2022-09-12T02:41:27.242Z,101290.19
2022-09-12T02:43:55.874Z,101285.16
2022-09-12T02:46:28.208Z,101282.66
2022-09-12T02:48:58.774Z,101282.63
2022-09-12T02:51:28.326Z,101279.81
2022-09-12T02:53:58.115Z,101280.94
2022-09-12T02:56:29.411Z,101274.78
2022-09-12T02:59:02.329Z,101276.47
2022-09-12T03:01:50.287Z,101276.44
2022-09-12T03:04:47.111Z,101276.44
2022-09-12T03:07:24.323Z,101272.53
2022-09-12T03:10:04.915Z,101267.81
2022-09-12T03:12:48.210Z,101271.97
2022-09-12T03:15:29.695Z,101271.41
2022-09-12T03:18:13.118Z,101263.88
2022-09-12T03:20:51.743Z,101266.13
2022-09-12T03:23:27.281Z,101268.34
2022-09-12T03:26:02.263Z,101269.19
2022-09-12T03:28:32.231Z,101264.41
2022-09-12T03:31:00.912Z,101268.06
2022-09-12T03:33:29.563Z,101271.41
2022-09-12T03:35:59.507Z,101260.81
2022-09-12T03:38:28.034Z,101267.75
2022-09-12T03:40:56.575Z,101266.09
2022-09-12T03:43:25.095Z,101256.03
2022-09-12T03:45:53.903Z,101262.16
2022-09-12T03:48:22.518Z,101254.63
2022-09-12T03:50:51.059Z,101260.50
2022-09-12T03:53:20.964Z,101264.66
2022-09-12T03:55:49.509Z,101261.88
2022-09-12T03:58:18.071Z,101255.19
2022-09-12T04:00:46.783Z,101252.41
2022-09-12T04:03:15.351Z,101258.25
2022-09-12T04:05:43.878Z,101259.34
2022-09-12T04:08:12.588Z,101255.16
2022-09-12T04:10:42.856Z,101254.88
2022-09-12T04:13:11.418Z,101246.22
2022-09-12T04:15:39.947Z,101255.72
2022-09-12T04:18:08.490Z,101243.69
2022-09-12T04:20:38.270Z,101245.63
2022-09-12T04:23:06.836Z,101249.00
2022-09-12T04:25:35.358Z,101246.22
2022-09-12T04:28:05.473Z,101241.94
2022-09-12T04:30:36.188Z,101241.94
2022-09-12T04:33:08.028Z,101243.31
2022-09-12T04:35:37.272Z,101239.13
2022-09-12T04:38:05.825Z,101243.59
2022-09-12T04:40:34.906Z,101244.44
2022-09-12T04:43:04.949Z,101238.38
2022-09-12T04:45:33.710Z,101235.25
2022-09-12T04:48:02.488Z,101236.34
2022-09-12T04:50:31.051Z,101231.03
2022-09-12T04:52:59.588Z,101235.84
2022-09-12T04:55:28.446Z,101227.69
2022-09-12T04:57:57.051Z,101231.00
2022-09-12T05:00:26.919Z,101223.22
2022-09-12T05:02:55.459Z,101228.50
2022-09-12T05:05:23.974Z,101228.78
2022-09-12T05:07:52.518Z,101226.28
2022-09-12T05:10:23.782Z,101215.44
2022-09-12T05:12:52.687Z,101214.06
2022-09-12T05:15:21.195Z,101211.78
2022-09-12T05:17:51.167Z,101210.72
2022-09-12T05:20:19.724Z,101215.69
2022-09-12T05:22:48.276Z,101218.25
2022-09-12T05:25:17.157Z,101210.41
2022-09-12T05:27:50.360Z,101215.44
2022-09-12T05:30:19.151Z,101212.38
2022-09-12T05:32:47.691Z,101214.91
2022-09-12T05:35:18.476Z,101217.72
2022-09-12T05:37:47.012Z,101212.44
2022-09-12T05:40:17.844Z,101219.69
2022-09-12T05:42:46.507Z,101215.41
2022-09-12T05:45:15.163Z,101215.03
2022-09-12T05:47:44.539Z,101222.22
2022-09-12T05:50:13.082Z,101221.78
2022-09-12T05:52:43.155Z,101226.81
2022-09-12T05:55:11.907Z,101212.19
2022-09-12T05:57:40.573Z,101219.81
2022-09-12T06:00:10.605Z,101232.22
2022-09-12T06:02:39.479Z,101226.06
2022-09-12T06:05:08.546Z,101230.31
2022-09-12T06:07:37.188Z,101235.63
2022-09-12T06:10:07.830Z,101231.00
2022-09-12T06:12:36.382Z,101240.66
2022-09-12T06:15:05.317Z,101244.31
2022-09-12T06:17:33.927Z,101241.72
2022-09-12T06:20:04.090Z,101240.69
2022-09-12T06:22:32.754Z,101239.03
2022-09-12T06:25:01.267Z,101237.88
2022-09-12T06:27:31.225Z,101236.16
2022-09-12T06:29:59.790Z,101240.03
2022-09-12T06:32:30.978Z,101241.31
2022-09-12T06:34:59.486Z,101241.94
2022-09-12T06:37:28.512Z,101228.47
2022-09-12T06:39:57.272Z,101232.84
2022-09-12T06:42:25.887Z,101230.56
2022-09-12T06:44:55.782Z,101228.38
2022-09-12T06:47:24.660Z,101230.88
2022-09-12T06:49:53.184Z,101232.28
2022-09-12T06:52:21.723Z,101236.06
2022-09-12T06:54:50.223Z,101238.69
2022-09-12T06:57:19.001Z,101236.44
2022-09-12T06:59:47.521Z,101234.44
2022-09-12T07:02:17.528Z,101242.41
2022-09-12T07:04:46.071Z,101238.31
2022-09-12T07:07:14.712Z,101233.97
2022-09-12T07:09:43.254Z,101241.38
2022-09-12T07:12:11.496Z,101229.19
2022-09-12T07:14:39.812Z,101240.06
2022-09-12T07:17:08.655Z,101244.72
2022-09-12T07:19:38.314Z,101232.47
2022-09-12T07:22:06.661Z,101243.88
2022-09-12T07:24:34.907Z,101249.75
2022-09-12T07:27:03.148Z,101232.25
2022-09-12T07:29:38.521Z,101238.28
2022-09-12T07:32:08.076Z,101231.94
2022-09-12T07:34:38.027Z,101237.50
2022-09-12T07:37:06.376Z,101233.88
2022-09-12T07:39:34.605Z,101217.50
2022-09-12T07:42:02.883Z,101230.88
2022-09-12T07:44:31.145Z,101229.28
2022-09-12T07:46:59.664Z,101231.91
2022-09-12T07:49:28.321Z,101236.91
2022-09-12T07:51:58.355Z,101232.19
2022-09-12T07:54:26.885Z,101233.81
2022-09-12T07:56:55.732Z,101242.06
2022-09-12T07:59:41.778Z,101248.31
2022-09-12T08:02:17.109Z,101236.81
2022-09-12T08:04:46.605Z,101239.81
2022-09-12T08:07:18.337Z,101232.34
2022-09-12T08:09:47.583Z,101235.06
2022-09-12T08:12:17.787Z,101240.13
2022-09-12T08:14:46.332Z,101239.56
2022-09-12T08:17:15.367Z,101252.38
2022-09-12T08:19:44.936Z,101247.31
2022-09-12T08:22:15.443Z,101246.78
2022-09-12T08:24:44.549Z,101240.63
2022-09-12T08:27:13.078Z,101242.09
2022-09-12T08:29:41.628Z,101242.66
2022-09-12T08:32:10.648Z,101245.72
2022-09-12T08:34:39.200Z,101239.59
2022-09-12T08:37:07.729Z,101231.44
2022-09-12T08:39:37.696Z,101240.94
2022-09-12T08:42:07.509Z,101236.47
2022-09-12T08:45:06.303Z,101232.28
2022-09-12T08:47:37.961Z,101233.09
2022-09-12T08:50:15.421Z,101231.84
2022-09-12T08:52:53.000Z,101230.84
2022-09-12T08:55:32.303Z,101224.44
2022-09-12T08:58:01.873Z,101234.47
2022-09-12T09:00:40.588Z,101235.31
2022-09-12T09:03:45.113Z,101231.06
2022-09-12T09:06:24.910Z,101231.34
2022-09-12T09:09:02.962Z,101236.78
2022-09-12T09:11:48.475Z,101240.38
2022-09-12T09:14:50.802Z,101242.41
2022-09-12T09:17:27.660Z,101236.91
2022-09-12T09:20:04.961Z,101243.84
2022-09-12T09:22:42.483Z,101236.38
2022-09-12T09:25:22.853Z,101231.03
2022-09-12T09:27:59.621Z,101230.56
2022-09-12T09:30:28.679Z,101227.03
2022-09-12T09:33:00.902Z,101224.63
2022-09-12T09:35:39.561Z,101226.72
2022-09-12T09:38:23.188Z,101213.63
2022-09-12T09:41:11.840Z,101214.19
2022-09-12T09:43:42.450Z,101217.16
2022-09-12T09:46:11.950Z,101213.28
2022-09-12T09:48:45.785Z,101212.88
2022-09-12T09:51:18.086Z,101210.38
2022-09-12T09:53:50.339Z,101205.44
2022-09-12T09:56:29.221Z,101206.81
2022-09-12T09:59:09.222Z,101200.78
2022-09-12T10:01:38.941Z,101197.81
2022-09-12T10:04:20.913Z,101191.56
2022-09-12T10:06:51.943Z,101193.13
2022-09-12T10:09:23.792Z,101191.06
2022-09-12T10:11:54.105Z,101185.72
2022-09-12T10:14:37.082Z,101190.25
2022-09-12T10:17:25.849Z,101184.38
2022-09-12T10:20:17.397Z,101182.13
2022-09-12T10:22:49.608Z,101181.66
2022-09-12T10:25:19.780Z,101170.50
2022-09-12T10:27:55.179Z,101176.63
2022-09-12T10:30:28.390Z,101169.75
2022-09-12T10:33:06.872Z,101165.03
2022-09-12T10:35:47.084Z,101165.78
2022-09-12T10:38:24.800Z,101158.25
2022-09-12T10:41:01.279Z,101150.88
2022-09-12T10:43:35.547Z,101158.19
2022-09-12T10:46:24.306Z,101146.56
2022-09-12T10:49:13.389Z,101149.16
2022-09-12T10:51:41.918Z,101141.91
2022-09-12T10:54:13.573Z,101144.78
2022-09-12T10:56:52.889Z,101144.28
2022-09-12T10:59:34.362Z,101142.22
2022-09-12T11:02:15.903Z,101137.59
2022-09-12T11:04:56.696Z,101137.53
2022-09-12T11:07:40.355Z,101138.84
2022-09-12T11:10:23.562Z,101132.97
2022-09-12T11:13:01.083Z,101128.56
2022-09-12T11:15:46.715Z,101119.44
2022-09-12T11:18:31.682Z,101119.59
2022-09-12T11:21:16.308Z,101119.34
2022-09-12T11:24:28.722Z,101110.44
2022-09-12T11:27:10.249Z,101108.44
2022-09-12T11:29:50.364Z,101111.28
2022-09-12T11:32:53.703Z,101105.97
2022-09-12T11:35:27.613Z,101112.47
2022-09-12T11:38:31.940Z,101102.69
2022-09-12T11:41:05.004Z,101104.16
2022-09-12T11:43:39.871Z,101098.94
2022-09-12T11:46:20.797Z,101095.09
2022-09-12T11:48:56.479Z,101084.63
2022-09-12T11:51:30.805Z,101091.00
2022-09-12T11:54:10.453Z,101093.94
2022-09-12T11:56:44.135Z,101087.34
2022-09-12T11:59:22.081Z,101080.13
2022-09-12T12:01:59.202Z,101082.94
2022-09-12T12:04:37.663Z,101079.72
2022-09-12T12:07:10.656Z,101078.00
2022-09-12T12:09:48.901Z,101089.69
2022-09-12T12:12:22.065Z,101073.63
2022-09-12T12:14:54.997Z,101080.91
2022-09-12T12:17:25.652Z,101078.75
2022-09-12T12:20:06.520Z,101079.66
2022-09-12T12:22:38.435Z,101074.72
2022-09-12T12:25:29.482Z,101067.25
2022-09-12T12:28:01.776Z,101070.19
2022-09-12T12:31:03.663Z,101070.56
2022-09-12T12:34:01.453Z,101059.31
2022-09-12T12:36:42.340Z,101054.44
2022-09-12T12:39:49.297Z,101057.31
2022-09-12T12:43:05.298Z,101053.06
2022-09-12T12:46:13.063Z,101040.38
2022-09-12T12:49:10.557Z,101035.78
2022-09-12T12:51:50.768Z,101029.88
2022-09-12T12:54:33.319Z,101027.09
2022-09-12T12:57:41.741Z,101018.75
2022-09-12T13:00:32.158Z,101023.00
2022-09-12T13:03:07.531Z,101018.78
2022-09-12T13:05:43.789Z,101020.84
2022-09-12T13:08:28.688Z,101025.50
2022-09-12T13:11:00.894Z,101027.38
2022-09-12T13:13:34.218Z,101026.06
2022-09-12T13:16:02.957Z,101023.69
2022-09-12T13:18:43.780Z,101008.59
2022-09-12T13:21:17.450Z,101003.19
2022-09-12T13:24:00.618Z,101006.50
2022-09-12T13:26:29.258Z,100997.53
2022-09-12T13:29:16.419Z,100990.88
2022-09-12T13:31:47.331Z,100996.13
2022-09-12T13:34:22.131Z,100992.44
2022-09-12T13:37:21.252Z,100994.00
2022-09-12T13:39:51.457Z,100990.13
2022-09-12T13:42:48.933Z,100991.94
2022-09-12T13:45:21.868Z,100987.63
2022-09-12T13:47:57.986Z,100990.13
2022-09-12T13:50:31.882Z,100994.47
2022-09-12T13:53:06.834Z,100987.19
2022-09-12T13:55:39.219Z,100985.34
2022-09-12T13:58:23.059Z,100978.06
2022-09-12T14:01:09.260Z,100983.38
2022-09-12T14:04:00.660Z,100974.03
2022-09-12T14:06:29.484Z,100962.06
2022-09-12T14:09:01.385Z,100961.72
2022-09-12T14:11:33.873Z,100962.91
2022-09-12T14:14:07.576Z,100962.19
2022-09-12T14:16:41.251Z,100953.19
2022-09-12T14:19:12.214Z,100963.56
2022-09-12T14:21:40.672Z,100952.09
2022-09-12T14:24:13.180Z,100953.38
2022-09-12T14:26:43.748Z,100949.72
2022-09-12T14:29:17.741Z,100950.56
2022-09-12T14:31:46.277Z,100935.56
2022-09-12T14:34:17.542Z,100935.09
2022-09-12T14:36:49.067Z,100930.31
2022-09-12T14:39:25.522Z,100917.59
2022-09-12T14:42:04.896Z,100912.16
2022-09-12T14:44:35.089Z,100911.34
2022-09-12T14:47:20.570Z,100914.97
2022-09-12T14:49:51.662Z,100920.47
2022-09-12T14:52:29.608Z,100919.13
2022-09-12T14:55:02.139Z,100920.13
2022-09-12T14:57:36.471Z,100910.66
2022-09-12T15:00:26.334Z,100909.31
2022-09-12T15:02:54.699Z,100895.97
2022-09-12T15:05:28.097Z,100898.84
2022-09-12T15:08:00.975Z,100903.88
2022-09-12T15:10:35.006Z,100900.25
2022-09-12T15:13:19.337Z,100898.47
2022-09-12T15:15:51.186Z,100897.13
2022-09-12T15:18:20.683Z,100893.97
2022-09-12T15:20:52.841Z,100908.59
2022-09-12T15:23:38.192Z,100897.13
2022-09-12T15:26:11.251Z,100901.75
2022-09-12T15:28:39.478Z,100892.63
2022-09-12T15:31:16.437Z,100883.13
2022-09-12T15:33:44.765Z,100882.53
2022-09-12T15:36:17.707Z,100877.41
2022-09-12T15:38:46.834Z,100877.25
2022-09-12T15:41:19.127Z,100871.84
2022-09-12T15:43:47.939Z,100866.09
2022-09-12T15:46:18.984Z,100858.91
2022-09-12T15:48:47.447Z,100866.47
2022-09-12T15:51:18.484Z,100862.88
2022-09-12T15:53:48.380Z,100862.78
2022-09-12T15:56:19.873Z,100869.94
2022-09-12T15:58:59.614Z,100857.00
2022-09-12T16:01:29.653Z,100859.81
2022-09-12T16:03:58.533Z,100851.44
2022-09-12T16:06:27.896Z,100844.53
2022-09-12T16:08:56.249Z,100836.88
2022-09-12T16:11:28.384Z,100840.91
2022-09-12T16:13:57.983Z,100838.44
2022-09-12T16:16:26.381Z,100835.34
2022-09-12T16:18:54.662Z,100826.09
2022-09-12T16:21:22.995Z,100825.00
2022-09-12T16:23:51.259Z,100826.69
2022-09-12T16:26:19.562Z,100823.88
2022-09-12T16:28:49.424Z,100814.59
2022-09-12T16:31:17.822Z,100808.88
2022-09-12T16:33:46.122Z,100821.41
2022-09-12T16:36:17.024Z,100817.34
2022-09-12T16:38:47.340Z,100826.63
2022-09-12T16:41:17.316Z,100823.31
2022-09-12T16:43:46.911Z,100821.56
2022-09-12T16:46:19.545Z,100825.78
2022-09-12T16:48:52.428Z,100819.72
2022-09-12T16:51:23.651Z,100813.84
2022-09-12T16:53:52.856Z,100805.06
2022-09-12T16:56:21.188Z,100801.75
2022-09-12T16:58:49.635Z,100798.50
2022-09-12T17:01:21.612Z,100801.91
2022-09-12T17:03:53.140Z,100800.38
2022-09-12T17:06:21.995Z,100801.22
2022-09-12T17:08:53.548Z,100806.34
2022-09-12T17:11:24.190Z,100797.53
2022-09-12T17:14:10.202Z,100790.97
2022-09-12T17:16:42.955Z,100792.97
2022-09-12T17:19:17.224Z,100787.38
2022-09-12T17:21:47.187Z,100790.16
2022-09-12T17:24:16.060Z,100786.66
2022-09-12T17:26:44.825Z,100794.84
2022-09-12T17:29:14.228Z,100785.66
2022-09-12T17:31:45.130Z,100777.97
2022-09-12T17:34:16.237Z,100779.91
2022-09-12T17:36:45.622Z,100780.44
2022-09-12T17:39:15.348Z,100770.88
2022-09-12T17:41:45.778Z,100781.56
2022-09-12T17:44:16.007Z,100782.25
2022-09-12T17:46:45.735Z,100790.59
2022-09-12T17:49:17.338Z,100772.81
2022-09-12T17:51:46.257Z,100775.31
2022-09-12T17:54:16.747Z,100772.78
2022-09-12T17:56:49.749Z,100773.59
2022-09-12T17:59:21.447Z,100766.22
2022-09-12T18:02:08.803Z,100774.38
2022-09-12T18:04:37.472Z,100773.19
2022-09-12T18:07:06.033Z,100771.88
2022-09-12T18:09:34.328Z,100769.53
2022-09-12T18:12:02.990Z,100781.41
2022-09-12T18:14:31.546Z,100786.25
2022-09-12T18:17:01.254Z,100785.44
2022-09-12T18:19:29.922Z,100784.16
2022-09-12T18:21:58.500Z,100784.97
2022-09-12T18:24:26.940Z,100774.06
2022-09-12T18:26:56.759Z,100760.50
2022-09-12T18:29:25.390Z,100759.97
2022-09-12T18:31:53.664Z,100748.81
2022-09-12T18:34:23.411Z,100760.34
2022-09-12T18:36:54.338Z,100759.06
2022-09-12T18:39:26.828Z,100764.25
2022-09-12T18:41:55.849Z,100767.25
2022-09-12T18:44:24.233Z,100759.44
2022-09-12T18:46:52.863Z,100764.25
2022-09-12T18:49:22.575Z,100756.13
2022-09-12T18:51:50.852Z,100754.25
2022-09-12T18:54:19.380Z,100759.72
2022-09-12T18:56:47.787Z,100752.59
2022-09-12T18:59:16.629Z,100740.16
2022-09-12T19:01:45.403Z,100752.06
2022-09-12T19:04:16.546Z,100743.81
2022-09-12T19:06:48.830Z,100729.00
2022-09-12T19:09:20.992Z,100733.38
2022-09-12T19:11:50.141Z,100743.66
2022-09-12T19:14:20.178Z,100733.06
2022-09-12T19:16:48.500Z,100734.09
2022-09-12T19:19:16.753Z,100733.69
2022-09-12T19:21:47.113Z,100739.34
2022-09-12T19:24:17.036Z,100751.69
2022-09-12T19:26:46.239Z,100746.38
2022-09-12T19:29:16.570Z,100748.53
2022-09-12T19:31:45.675Z,100741.72
2022-09-12T19:34:15.102Z,100738.25
2022-09-12T19:36:46.276Z,100730.81
2022-09-12T19:39:19.444Z,100726.06
2022-09-12T19:41:47.960Z,100747.16
2022-09-12T19:44:19.170Z,100739.53
2022-09-12T19:46:47.615Z,100739.72
2022-09-12T19:49:15.948Z,100733.06
2022-09-12T19:51:44.454Z,100738.38
2022-09-12T19:54:13.093Z,100739.41
2022-09-12T19:56:42.749Z,100743.53
2022-09-12T19:59:11.213Z,100743.06
2022-09-12T20:01:39.566Z,100745.50
2022-09-12T20:04:07.988Z,100736.34
2022-09-12T20:06:36.850Z,100743.25
2022-09-12T20:09:05.412Z,100753.69
2022-09-12T20:11:33.841Z,100746.41
2022-09-12T20:14:03.810Z,100743.19
2022-09-12T20:16:33.541Z,100750.59
2022-09-12T20:19:06.099Z,100738.69
2022-09-12T20:21:36.046Z,100741.19
2022-09-12T20:24:07.539Z,100735.44
2022-09-12T20:26:36.754Z,100728.44
2022-09-12T20:29:07.586Z,100728.88
2022-09-12T20:31:37.134Z,100729.06
2022-09-12T20:34:06.469Z,100727.38
2022-09-12T20:36:35.391Z,100727.19
2022-09-12T20:39:04.060Z,100722.13
2022-09-12T20:41:35.353Z,100721.78
2022-09-12T20:44:05.186Z,100712.91
2022-09-12T20:46:33.587Z,100707.28
2022-09-12T20:49:01.899Z,100707.78
2022-09-12T20:51:30.487Z,100707.78
2022-09-12T20:54:00.773Z,100695.97
2022-09-12T20:56:31.747Z,100688.13
2022-09-12T20:59:00.401Z,100695.84
2022-09-12T21:01:31.458Z,100682.13
2022-09-12T21:04:01.087Z,100685.25
2022-09-12T21:06:29.815Z,100686.63
2022-09-12T21:09:00.668Z,100674.00
2022-09-12T21:11:29.706Z,100667.84
2022-09-12T21:13:58.485Z,100672.06
2022-09-12T21:16:27.157Z,100668.09
2022-09-12T21:18:59.467Z,100658.47
2022-09-12T21:21:28.296Z,100670.31
2022-09-12T21:24:00.548Z,100671.47
2022-09-12T21:26:28.833Z,100663.19
2022-09-12T21:28:57.477Z,100670.94
2022-09-12T21:31:26.547Z,100663.88
2022-09-12T21:33:56.300Z,100668.34
2022-09-12T21:36:26.078Z,100667.09
2022-09-12T21:38:54.339Z,100668.97
2022-09-12T21:41:22.631Z,100665.53
2022-09-12T21:43:51.333Z,100673.78
2022-09-12T21:46:20.014Z,100674.97
2022-09-12T21:48:48.284Z,100686.25
2022-09-12T21:51:18.186Z,100680.38
2022-09-12T21:53:46.440Z,100675.72
2022-09-12T21:56:14.730Z,100673.53
2022-09-12T21:58:42.953Z,100671.00
2022-09-12T22:01:13.382Z,100674.50
2022-09-12T22:03:44.820Z,100690.44
2022-09-12T22:06:14.234Z,100695.81
2022-09-12T22:08:43.902Z,100702.81
2022-09-12T22:11:12.908Z,100691.34
2022-09-12T22:13:43.337Z,100682.75
2022-09-12T22:16:12.361Z,100687.66
2022-09-12T22:18:40.723Z,100701.47
2022-09-12T22:21:13.026Z,100697.59
2022-09-12T22:23:59.248Z,100693.97
2022-09-12T22:26:29.303Z,100696.19
2022-09-12T22:28:57.709Z,100699.22
2022-09-12T22:31:27.050Z,100709.53
2022-09-12T22:33:57.359Z,100709.19
2022-09-12T22:36:30.447Z,100710.53
2022-09-12T22:38:59.792Z,100707.53
2022-09-12T22:41:29.544Z,100701.03
2022-09-12T22:43:58.525Z,100690.72
2022-09-12T22:46:27.592Z,100690.94
2022-09-12T22:48:56.662Z,100693.50
2022-09-12T22:51:25.252Z,100684.75
2022-09-12T22:53:53.763Z,100682.75
2022-09-12T22:56:22.570Z,100686.06
2022-09-12T22:58:52.259Z,100702.66
2022-09-12T23:01:20.664Z,100700.66
2022-09-12T23:03:49.003Z,100704.56
2022-09-12T23:06:17.618Z,100701.53
2022-09-12T23:08:46.056Z,100712.94
2022-09-12T23:11:17.020Z,100712.09
2022-09-12T23:13:47.612Z,100716.22
2022-09-12T23:16:20.106Z,100709.19
2022-09-12T23:18:49.494Z,100694.94
2022-09-12T23:21:20.733Z,100695.75
2022-09-12T23:23:49.421Z,100691.91
2022-09-12T23:26:21.449Z,100691.09
2022-09-12T23:28:52.826Z,100680.13
2022-09-12T23:31:23.952Z,100686.31
2022-09-12T23:33:55.753Z,100682.19
2022-09-12T23:36:25.506Z,100674.28
2022-09-12T23:38:54.896Z,100673.97
2022-09-12T23:41:23.750Z,100677.50
2022-09-12T23:43:52.502Z,100679.34
2022-09-12T23:46:22.557Z,100688.81
2022-09-12T23:48:53.206Z,100675.56
2022-09-12T23:51:22.789Z,100675.88
2022-09-12T23:53:51.070Z,100677.28
2022-09-12T23:56:19.347Z,100670.81
2022-09-12T23:58:47.948Z,100661.69
